createdAt,value
2022-12-01T00:02:55.461Z,16.37
2022-12-01T00:13:00.311Z,18.33
2022-12-01T00:23:05.008Z,17.10
2022-12-01T00:33:07.948Z,15.60
2022-12-01T00:43:12.370Z,21.27
2022-12-01T00:53:15.467Z,26.60
2022-12-01T01:03:19.868Z,24.13
2022-12-01T01:13:22.823Z,29.37
2022-12-01T01:23:27.608Z,26.70
2022-12-01T01:33:30.958Z,29.47
2022-12-01T01:43:47.576Z,26.53
2022-12-01T01:53:54.899Z,28.47
2022-12-01T02:03:59.624Z,33.20
2022-12-01T02:14:14.028Z,24.97
2022-12-01T02:24:49.407Z,28.07
2022-12-01T02:35:00.661Z,23.73
2022-12-01T02:45:06.639Z,20.93
2022-12-01T02:55:11.276Z,24.03
2022-12-01T03:05:20.961Z,24.77
2022-12-01T03:15:34.166Z,27.13
2022-12-01T03:25:41.143Z,30.90
2022-12-01T03:35:54.600Z,30.00
2022-12-01T03:46:05.895Z,32.57
2022-12-01T03:56:11.524Z,38.50
2022-12-01T04:06:15.225Z,42.90
2022-12-01T04:16:19.585Z,46.17
2022-12-01T04:26:22.519Z,50.37
2022-12-01T04:36:28.057Z,51.77
2022-12-01T04:46:30.942Z,55.27
2022-12-01T04:56:35.360Z,51.37
2022-12-01T05:06:38.219Z,54.53
2022-12-01T05:16:42.901Z,50.27
2022-12-01T05:26:46.438Z,51.40
2022-12-01T05:36:50.800Z,51.70
2022-12-01T05:46:53.650Z,50.63
2022-12-01T05:56:57.930Z,41.83
2022-12-01T06:07:00.859Z,46.43
2022-12-01T06:17:05.569Z,45.63
2022-12-01T06:27:08.606Z,47.97
2022-12-01T06:37:15.755Z,47.73
2022-12-01T06:47:18.643Z,51.07
2022-12-01T06:57:22.926Z,54.17
2022-12-01T07:07:26.434Z,46.17
2022-12-01T07:17:31.476Z,50.20
2022-12-01T07:27:34.814Z,49.43
2022-12-01T07:37:39.201Z,42.77
2022-12-01T07:47:42.292Z,43.13
2022-12-01T07:57:46.819Z,40.90
2022-12-01T08:07:49.975Z,41.80
2022-12-01T08:17:54.380Z,36.10
2022-12-01T08:27:57.848Z,41.23
2022-12-01T08:38:02.255Z,39.83
2022-12-01T08:58:48.252Z,39.87
2022-12-01T09:08:51.176Z,43.47
2022-12-01T09:18:56.949Z,44.87
2022-12-01T09:29:02.128Z,36.87
2022-12-01T09:39:07.372Z,41.53
2022-12-01T09:49:17.731Z,37.70
2022-12-01T09:59:25.143Z,34.43
2022-12-01T10:09:35.637Z,36.70
2022-12-01T10:19:46.020Z,35.17
2022-12-01T10:29:59.851Z,34.80
2022-12-01T10:40:04.729Z,37.63
2022-12-01T10:50:09.777Z,31.40
2022-12-01T11:00:57.399Z,29.03
2022-12-01T11:10:50.102Z,25.17
2022-12-01T11:21:09.612Z,19.33
2022-12-01T11:31:13.669Z,21.23
2022-12-01T11:41:29.342Z,15.90
2022-12-01T11:51:37.747Z,15.80
2022-12-01T12:02:05.502Z,16.13
2022-12-01T12:12:21.460Z,17.20
2022-12-01T12:22:35.016Z,18.43
2022-12-01T12:32:55.266Z,23.80
2022-12-01T12:43:19.654Z,26.37
2022-12-01T12:53:27.716Z,25.13
2022-12-01T13:03:40.026Z,31.10
2022-12-01T13:14:02.945Z,31.70
2022-12-01T13:24:11.972Z,34.47
2022-12-01T13:34:23.816Z,36.07
2022-12-01T13:44:33.051Z,37.50
2022-12-01T13:54:38.324Z,36.53
2022-12-01T14:04:42.735Z,44.27
2022-12-01T14:14:53.990Z,44.53
2022-12-01T14:24:58.831Z,48.67
2022-12-01T14:35:06.385Z,43.87
2022-12-01T14:45:17.032Z,47.90
2022-12-01T14:55:22.908Z,49.40
2022-12-01T15:05:29.414Z,49.90
2022-12-01T15:15:32.440Z,49.90
2022-12-01T15:25:37.745Z,46.53
2022-12-01T15:35:41.531Z,48.27
2022-12-01T15:45:52.153Z,49.37
2022-12-01T15:55:59.202Z,47.53
2022-12-01T16:06:03.867Z,60.67
2022-12-01T16:16:30.792Z,50.47
2022-12-01T16:26:35.276Z,43.80
2022-12-01T16:36:38.118Z,49.37
2022-12-01T16:46:43.064Z,50.87
2022-12-01T16:56:46.145Z,50.53
2022-12-01T17:06:50.761Z,46.63
2022-12-01T17:16:53.888Z,49.30
2022-12-01T17:26:58.221Z,51.77
2022-12-01T17:37:01.576Z,50.93
2022-12-01T17:47:06.160Z,49.30
2022-12-01T17:57:09.137Z,44.17
2022-12-01T18:07:13.593Z,47.93
2022-12-01T18:17:16.998Z,44.27
2022-12-01T18:27:21.444Z,48.70
2022-12-01T18:37:24.626Z,50.77
2022-12-01T18:47:29.470Z,54.27
2022-12-01T18:57:32.627Z,57.40
2022-12-01T19:07:36.954Z,52.00
2022-12-01T19:17:40.227Z,52.27
2022-12-01T19:27:44.510Z,55.07
2022-12-01T19:37:47.363Z,56.03
2022-12-01T19:47:53.600Z,55.73
2022-12-01T19:57:57.433Z,54.60
2022-12-01T20:08:02.885Z,52.90
2022-12-01T20:18:06.182Z,51.97
2022-12-01T20:28:10.606Z,56.87
2022-12-01T20:38:13.606Z,53.87
2022-12-01T20:48:18.747Z,58.00
2022-12-01T20:58:21.810Z,53.97
2022-12-01T21:08:26.383Z,53.27
2022-12-01T21:18:35.723Z,51.03
2022-12-01T21:28:40.310Z,48.92
2022-12-01T21:38:43.938Z,52.27
2022-12-01T21:48:49.118Z,51.60
2022-12-01T21:58:53.527Z,49.23
2022-12-01T22:09:00.891Z,49.83
2022-12-01T22:19:24.356Z,50.23
2022-12-01T22:29:31.391Z,54.00
2022-12-01T22:39:35.089Z,51.17
2022-12-01T22:49:39.854Z,54.87
2022-12-01T22:59:44.844Z,48.07
2022-12-01T23:09:49.681Z,49.43
2022-12-01T23:19:55.118Z,48.47
2022-12-01T23:30:00.236Z,46.93
2022-12-01T23:40:09.328Z,40.20
